CheckWX is a tool to help pilots better visualize weather data.  It is not intended as a substitute for an official pre-flight weather briefing.

05:12:18 UTC

LUKK TAF
Chişinău International Airport
Chişinău, Moldova
TAF AMD LUKK 230108Z 2301/2324 31008KT 9999 SCT030 BECMG 2305/2307 35016KT TEMPO 2307/2315 36020G32KT BECMG 2315/2317 36008KT

Mar-23@
01:00 UTC

Mar-23 @ 01:00 UTC

Mar-23@
05:00 UTC

Mar-23 @ 05:00 UTC

TAF AMD LUKK 230108Z 2301/2324 31008KT 9999 SCT030

Expired

Wind
  • 310° at 8 KTS
Cloud Levels
  • Scattered at 3,000' AGL

Mar-23@
05:00 UTC

Mar-23 @ 05:00 UTC

Mar-23@
15:00 UTC

Mar-23 @ 15:00 UTC

BECMG 2305/2307 35016KT

Becoming

Becoming Conditions expected by Sat, Mar 23, 2019 @ 07:00 UTC

Wind
  • 350° at 16 KTS
Cloud Levels
  • Scattered at 3,000' AGL

Mar-23@
07:00 UTC

Mar-23 @ 07:00 UTC

Mar-23@
15:00 UTC

Mar-23 @ 15:00 UTC

TEMPO 2307/2315 36020G32KT

Temporary

Temporary Changes expected for less than half the time period

Wind
  • 360° at 20 KTS
  • {Gusting to 32 KTS

Mar-23@
15:00 UTC

Mar-23 @ 15:00 UTC

Mar-24@
00:00 UTC

Mar-24 @ 00:00 UTC

BECMG 2315/2317 36008KT

Becoming

Becoming Conditions expected by Sat, Mar 23, 2019 @ 17:00 UTC

Wind
  • 360° at 8 KTS
Cloud Levels
  • Scattered at 3,000' AGL